createdAt,value
2018-12-29T00:01:48.862Z,2.80
2018-12-29T00:04:18.250Z,2.40
2018-12-29T00:07:06.639Z,2.37
2018-12-29T00:09:55.015Z,2.22
2018-12-29T00:18:48.422Z,2.27
2018-12-29T00:21:36.870Z,1.98
2018-12-29T00:24:06.203Z,2.60
2018-12-29T00:26:54.627Z,1.25
2018-12-29T00:29:24.024Z,2.12
2018-12-29T00:31:53.342Z,1.72
2018-12-29T00:34:22.679Z,2.70
2018-12-29T00:36:52.019Z,1.80
2018-12-29T00:39:21.362Z,1.80
2018-12-29T00:41:50.879Z,1.85
2018-12-29T00:44:20.279Z,1.25
2018-12-29T00:46:49.675Z,1.90
2018-12-29T00:49:19.090Z,1.67
2018-12-29T00:51:48.424Z,2.37
2018-12-29T00:54:18.126Z,1.07
2018-12-29T00:56:47.530Z,1.27
2018-12-29T00:59:16.862Z,2.02
2018-12-29T01:01:46.207Z,1.25
2018-12-29T01:04:15.547Z,1.55
2018-12-29T01:07:03.999Z,1.92
2018-12-29T01:09:33.326Z,1.30
2018-12-29T01:12:02.650Z,1.87
2018-12-29T01:14:31.995Z,2.58
2018-12-29T01:17:01.345Z,2.30
2018-12-29T01:19:30.756Z,2.20
2018-12-29T01:22:19.135Z,2.02
2018-12-29T01:24:48.503Z,1.72
2018-12-29T01:27:17.970Z,2.10
2018-12-29T01:29:47.304Z,1.90
2018-12-29T01:32:16.670Z,2.90
2018-12-29T01:34:46.010Z,1.10
2018-12-29T01:37:15.343Z,1.70
2018-12-29T01:39:44.978Z,1.75
2018-12-29T01:42:14.313Z,1.85
2018-12-29T01:44:43.707Z,1.80
2018-12-29T01:47:13.065Z,1.60
2018-12-29T01:49:42.468Z,1.45
2018-12-29T01:52:11.815Z,1.20
2018-12-29T01:54:41.147Z,2.17
2018-12-29T01:57:10.494Z,1.42
2018-12-29T01:59:39.875Z,2.22
2018-12-29T02:02:09.214Z,2.10
2018-12-29T02:04:38.551Z,2.70
2018-12-29T02:07:07.883Z,1.87
2018-12-29T02:09:37.213Z,1.87
2018-12-29T02:12:06.587Z,1.57
2018-12-29T02:14:35.918Z,1.75
2018-12-29T02:17:05.730Z,2.77
2018-12-29T02:19:35.137Z,2.45
2018-12-29T02:22:04.475Z,1.80
2018-12-29T02:24:33.967Z,2.05
2018-12-29T02:27:03.428Z,1.60
2018-12-29T02:29:32.843Z,1.55
2018-12-29T02:32:02.175Z,1.47
2018-12-29T02:34:31.512Z,2.02
2018-12-29T02:37:00.935Z,1.90
2018-12-29T02:39:30.272Z,2.00
2018-12-29T02:41:59.675Z,2.10
2018-12-29T02:44:29.021Z,2.22
2018-12-29T02:46:58.430Z,1.87
2018-12-29T02:49:27.842Z,2.20
2018-12-29T02:51:57.183Z,1.32
2018-12-29T02:54:26.530Z,1.70
2018-12-29T02:56:55.863Z,1.57
2018-12-29T02:59:25.192Z,1.92
2018-12-29T03:01:54.563Z,1.50
2018-12-29T03:04:23.897Z,1.98
2018-12-29T03:06:53.306Z,1.45
2018-12-29T03:09:22.695Z,1.25
2018-12-29T03:11:52.031Z,1.87
2018-12-29T03:14:21.394Z,2.05
2018-12-29T03:16:50.725Z,1.55
2018-12-29T03:19:20.129Z,1.90
2018-12-29T03:22:08.512Z,1.55
2018-12-29T03:24:37.892Z,1.92
2018-12-29T03:27:26.397Z,1.98
2018-12-29T03:29:55.765Z,2.22
2018-12-29T03:32:44.273Z,1.47
2018-12-29T03:35:32.683Z,1.15
2018-12-29T04:05:48.840Z,2.33
2018-12-29T04:08:37.226Z,2.12
2018-12-29T04:11:22.857Z,1.55
2018-12-29T04:26:13.188Z,1.82
2018-12-29T04:29:01.698Z,2.30
2018-12-29T04:34:24.806Z,2.10
2018-12-29T04:37:13.179Z,1.90
2018-12-29T04:55:09.119Z,1.70
2018-12-29T04:57:57.554Z,1.85
2018-12-29T05:18:57.475Z,2.85
2018-12-29T05:21:45.851Z,2.47
2018-12-29T05:42:46.244Z,2.55
2018-12-29T05:45:35.066Z,2.25
2018-12-29T05:48:23.442Z,1.70
2018-12-29T06:12:29.394Z,2.75
2018-12-29T06:15:18.054Z,2.62
2018-12-29T06:17:47.383Z,1.70
2018-12-29T06:20:35.894Z,2.37
2018-12-29T06:26:24.530Z,2.02
2018-12-29T06:29:12.971Z,2.12
2018-12-29T06:53:18.613Z,2.60
2018-12-29T06:56:07.114Z,3.30
2018-12-29T06:58:36.746Z,2.98
2018-12-29T07:01:25.127Z,3.17
2018-12-29T07:16:29.674Z,3.37
2018-12-29T07:37:30.263Z,3.90
2018-12-29T07:39:59.588Z,2.30
2018-12-29T07:42:28.944Z,2.58
2018-12-29T07:44:58.369Z,2.65
2018-12-29T07:47:27.783Z,3.85
2018-12-29T07:50:16.154Z,3.47
2018-12-29T07:52:45.493Z,3.45
2018-12-29T07:55:15.537Z,3.98
2018-12-29T07:57:45.031Z,2.85
2018-12-29T08:00:14.371Z,4.05
2018-12-29T08:02:43.702Z,2.98
2018-12-29T08:05:13.102Z,3.60
2018-12-29T08:07:42.452Z,3.17
2018-12-29T08:10:30.887Z,2.80
2018-12-29T08:13:00.253Z,3.25
2018-12-29T08:15:29.574Z,3.45
2018-12-29T08:17:58.907Z,3.50
2018-12-29T08:20:47.371Z,3.72
2018-12-29T09:00:26.978Z,1.45
2018-12-29T09:03:15.443Z,2.02
2018-12-29T09:08:28.628Z,2.98
2018-12-29T09:11:28.675Z,2.15
2018-12-29T09:14:13.406Z,3.08
2018-12-29T09:20:01.758Z,2.22
2018-12-29T09:22:31.087Z,1.90
2018-12-29T09:25:19.495Z,1.55
2018-12-29T09:28:07.863Z,1.52
2018-12-29T09:30:37.228Z,2.33
2018-12-29T09:33:25.603Z,2.27
2018-12-29T09:39:00.380Z,2.80
2018-12-29T09:41:48.802Z,3.10
2018-12-29T09:44:18.186Z,2.77
2018-12-29T09:47:06.627Z,2.50
2018-12-29T09:52:41.044Z,2.37
2018-12-29T09:55:10.407Z,2.30
2018-12-29T09:57:58.846Z,2.95
2018-12-29T10:09:37.446Z,2.60
2018-12-29T10:12:06.816Z,2.22
2018-12-29T10:14:36.248Z,2.47
2018-12-29T10:17:06.132Z,2.75
2018-12-29T10:19:35.532Z,2.72
2018-12-29T10:22:04.859Z,2.42
2018-12-29T10:24:34.353Z,2.98
2018-12-29T10:27:03.978Z,1.47
2018-12-29T10:29:33.523Z,2.45
2018-12-29T10:32:02.959Z,2.60
2018-12-29T10:34:32.359Z,2.77
2018-12-29T10:37:01.707Z,2.45
2018-12-29T10:39:31.035Z,2.95
2018-12-29T10:42:00.368Z,2.70
2018-12-29T10:44:29.898Z,3.75
2018-12-29T10:46:59.322Z,2.50
2018-12-29T10:49:28.715Z,2.80
2018-12-29T10:51:58.046Z,2.60
2018-12-29T10:54:27.443Z,2.52
2018-12-29T10:56:56.807Z,2.77
2018-12-29T10:59:26.143Z,3.65
2018-12-29T11:01:55.546Z,2.70
2018-12-29T11:04:24.871Z,3.42
2018-12-29T11:06:54.194Z,3.33
2018-12-29T11:09:23.680Z,4.00
2018-12-29T11:11:53.023Z,2.35
2018-12-29T11:17:42.675Z,2.35
2018-12-29T11:26:22.214Z,5.30
2018-12-29T11:29:10.690Z,4.50
2018-12-29T11:31:59.147Z,2.92
2018-12-29T11:37:33.769Z,3.55
2018-12-29T11:40:22.223Z,4.53
2018-12-29T11:42:51.575Z,3.92
2018-12-29T11:45:39.379Z,4.25
2018-12-29T12:06:54.108Z,3.92
2018-12-29T12:09:42.573Z,3.90
2018-12-29T12:24:32.527Z,4.30
2018-12-29T12:27:20.981Z,4.90
2018-12-29T12:32:55.659Z,4.42
2018-12-29T12:35:44.370Z,4.62
2018-12-29T12:38:33.090Z,4.87
2018-12-29T12:44:07.699Z,4.83
2018-12-29T12:46:37.095Z,4.80
2018-12-29T12:49:06.834Z,6.42
2018-12-29T12:51:36.239Z,4.28
2018-12-29T12:54:06.083Z,5.08
2018-12-29T12:56:35.482Z,5.83
2018-12-29T12:59:05.194Z,5.50
2018-12-29T13:01:34.765Z,7.90
2018-12-29T13:04:23.230Z,5.90
2018-12-29T13:06:52.688Z,4.83
2018-12-29T13:09:41.147Z,5.20
2018-12-29T13:12:10.675Z,4.17
2018-12-29T13:14:40.072Z,4.45
2018-12-29T13:17:09.475Z,3.25
2018-12-29T13:19:38.874Z,3.37
2018-12-29T13:22:08.278Z,3.90
2018-12-29T13:24:37.706Z,4.00
2018-12-29T13:27:07.130Z,4.62
2018-12-29T13:29:36.522Z,3.00
2018-12-29T13:32:05.966Z,2.77
2018-12-29T13:34:35.375Z,3.42
2018-12-29T13:37:04.837Z,3.33
2018-12-29T13:39:34.565Z,3.95
2018-12-29T13:42:03.971Z,3.10
2018-12-29T13:44:33.379Z,3.25
2018-12-29T13:47:02.834Z,3.52
2018-12-29T13:49:32.242Z,3.25
2018-12-29T13:52:01.683Z,4.45
2018-12-29T13:54:50.159Z,6.05
2018-12-29T13:57:19.616Z,4.37
2018-12-29T13:59:49.189Z,3.33
2018-12-29T14:02:18.601Z,4.45
2018-12-29T14:05:07.059Z,4.08
2018-12-29T14:07:36.578Z,5.25
2018-12-29T14:10:06.062Z,4.15
2018-12-29T14:12:35.474Z,4.33
2018-12-29T14:15:04.877Z,5.75
2018-12-29T14:17:34.286Z,5.40
2018-12-29T14:20:04.122Z,4.58
2018-12-29T14:22:33.534Z,3.75
2018-12-29T14:25:21.975Z,4.03
2018-12-29T14:28:10.495Z,4.03
2018-12-29T14:33:45.182Z,3.65
2018-12-29T14:36:33.758Z,3.70
2018-12-29T14:39:22.251Z,3.40
2018-12-29T14:41:51.747Z,2.98
2018-12-29T14:44:21.160Z,4.60
2018-12-29T14:47:09.679Z,4.58
2018-12-29T14:49:39.140Z,4.33
2018-12-29T14:52:27.612Z,3.40
2018-12-29T15:07:31.476Z,3.40
2018-12-29T15:10:01.203Z,3.20
2018-12-29T15:12:49.683Z,4.10
2018-12-29T15:15:34.223Z,3.67
2018-12-29T15:18:03.928Z,3.42
2018-12-29T15:20:52.682Z,5.97
2018-12-29T15:23:41.180Z,3.75
2018-12-29T15:26:10.934Z,4.95
2018-12-29T15:28:59.383Z,3.87
2018-12-29T15:31:29.091Z,3.27
2018-12-29T15:34:17.579Z,4.70
2018-12-29T16:13:48.386Z,5.10
2018-12-29T16:22:42.287Z,4.03
2018-12-29T16:25:30.810Z,3.98
2018-12-29T16:28:00.209Z,4.45
2018-12-29T16:30:29.930Z,4.17
2018-12-29T16:33:18.503Z,4.30
2018-12-29T16:36:07.166Z,4.87
2018-12-29T16:54:17.486Z,4.50
2018-12-29T16:57:05.934Z,4.05
2018-12-29T16:59:54.742Z,4.05
2018-12-29T17:08:34.397Z,4.50
2018-12-29T17:11:22.911Z,3.02
2018-12-29T17:20:02.595Z,3.00
2018-12-29T17:22:51.387Z,3.47
2018-12-29T18:02:23.874Z,4.45
2018-12-29T18:05:12.330Z,6.47
2018-12-29T18:08:00.762Z,4.40
2018-12-29T18:25:56.358Z,5.78
2018-12-29T18:28:44.804Z,6.05
2018-12-29T18:31:33.250Z,5.17
2018-12-29T18:37:08.039Z,4.97
2018-12-29T18:39:56.510Z,4.80
2018-12-29T18:48:24.256Z,5.50
2018-12-29T18:51:13.056Z,5.42
2018-12-29T18:56:47.835Z,4.10
2018-12-29T18:59:36.671Z,4.75
2018-12-29T19:05:42.302Z,4.50
2018-12-29T19:08:11.708Z,4.78
2018-12-29T19:11:00.182Z,5.40
2018-12-29T19:13:48.924Z,5.37
2018-12-29T19:16:18.678Z,5.60
2018-12-29T19:19:07.131Z,5.33
2018-12-29T19:30:52.065Z,7.30
2018-12-29T19:33:40.850Z,4.70
2018-12-29T19:39:15.559Z,6.05
2018-12-29T19:42:04.015Z,5.83
2018-12-29T19:44:33.758Z,4.80
2018-12-29T19:47:03.179Z,4.95
2018-12-29T19:49:32.875Z,5.22
2018-12-29T19:52:02.290Z,4.67
2018-12-29T19:54:31.948Z,7.20
2018-12-29T19:57:01.666Z,7.05
2018-12-29T19:59:31.390Z,8.83
2018-12-29T20:02:01.078Z,6.00
2018-12-29T20:04:30.483Z,6.65
2018-12-29T20:07:00.159Z,6.28
2018-12-29T20:09:29.505Z,7.62
2018-12-29T20:12:18.263Z,7.05
2018-12-29T20:14:47.680Z,5.60
2018-12-29T20:20:22.403Z,5.10
2018-12-29T20:23:10.884Z,6.83
2018-12-29T20:25:55.307Z,5.95
2018-12-29T20:31:58.819Z,6.80
2018-12-29T20:37:47.503Z,7.62
2018-12-29T20:40:36.020Z,6.03
2018-12-29T21:01:37.872Z,5.35
2018-12-29T21:04:07.271Z,5.28
2018-12-29T21:06:36.683Z,4.53
2018-12-29T21:09:08.720Z,5.67
2018-12-29T21:11:38.178Z,6.00
2018-12-29T21:14:26.629Z,5.12
2018-12-29T21:17:12.120Z,5.25
2018-12-29T21:22:46.999Z,5.10
2018-12-29T21:25:35.443Z,6.22
2018-12-29T21:34:15.067Z,6.37
2018-12-29T21:36:44.466Z,7.28
2018-12-29T21:39:33.023Z,5.85
2018-12-29T21:42:02.473Z,5.60
2018-12-29T21:44:31.886Z,5.70
2018-12-29T21:47:20.399Z,6.62
2018-12-29T21:50:08.988Z,6.00
2018-12-29T21:55:57.697Z,4.40
2018-12-29T21:58:46.175Z,4.85
2018-12-29T22:07:26.534Z,6.20
2018-12-29T22:10:15.299Z,4.85
2018-12-29T22:13:03.874Z,6.20
2018-12-29T22:24:49.548Z,4.72
2018-12-29T22:27:18.950Z,3.85
2018-12-29T22:29:48.364Z,4.45
2018-12-29T22:32:36.851Z,5.45
2018-12-29T23:49:10.634Z,4.42
2018-12-29T23:51:40.020Z,3.15
2018-12-29T23:54:09.882Z,3.15
2018-12-29T23:56:39.583Z,4.15
2018-12-29T23:59:09.000Z,5.67
